Archival Weather

Chicago O'Hare International

Chicago, Illinois (KORD)

Report from: Thursday, November 24, 2022 9:51 AM CST
Current time: Sunday, December 4, 2022 6:55 AM CST

Current weather
Weather history
Weather forecast

Temperature7.2°C (45.0°F)
Wind chill5.5°C (41.8°F)
Dew point1.1°C (34.0°F)
Winds 5 kts (2.6 m/s, 5.8 mph) South (180°)
Visibility10 mi. (16.1 km)
Clouds Ceiling: Overcast 9,000 ft. (2,743 m)
Altimeter30.13 in.Hg (1020 mB)
PrecipitiationTrace
Precip. events Rain began 9:33 AM
Rain ended 9:45 AM
Relative humidity65 %
Density altitude-1,078 ft. (-329 m)
Sea-level pressure102.1 kPa (1021 mB, 30.14 in.Hg)
Remarks System requires maintenance
Automated weather observing station with precipitation discriminator
Flight conditions Visual Meteorological Conditions
Raw dataKORD 241551Z 18005KT 10SM OVC090 07/01 A3013 RMK AO2 RAB33E45 SLP205 P0000 T00720011 $
An error has occurred. This application may no longer respond until reloaded. Reload 🗙